Time;durP1;ratioP1;P1;durP2;ratioP2;P2;SDS_P1;SDS_P2;PMS_P1;PMS_P2;Temp;Humidity;BMP_temperature;BMP_pressure;BME280_temperature;BME280_humidity;BME280_pressure;Samples;Min_cycle;Max_cycle;Signal;HPM_P1;HPM_P2
2023/08/10 00:00:53;;;;;;;5.47;5.07;;;;;;;15.37;85.32;98340.34;5050572;28;20493;-74
2023/08/10 00:03:19;;;;;;;5.20;4.70;;;;;;;15.34;85.15;98345.41;5050105;28;20458;-74
2023/08/10 00:05:46;;;;;;;4.57;4.23;;;;;;;15.26;85.29;98349.28;5050575;28;20518;-74
2023/08/10 00:08:14;;;;;;;4.50;4.20;;;;;;;15.10;85.95;98344.38;5050414;28;20506;-75
2023/08/10 00:10:41;;;;;;;4.77;4.33;;;;;;;15.21;85.29;98351.84;5050372;28;20538;-75
2023/08/10 00:13:09;;;;;;;4.97;4.63;;;;;;;15.03;84.80;98311.72;5049787;28;20441;-74
2023/08/10 00:15:36;;;;;;;4.90;4.50;;;;;;;15.26;84.49;98348.44;5049454;28;20541;-75
2023/08/10 00:18:04;;;;;;;5.07;4.67;;;;;;;15.20;84.67;98352.91;5049914;28;20513;-75
2023/08/10 00:20:31;;;;;;;5.00;4.60;;;;;;;15.11;84.97;98349.63;5050326;28;20447;-74
2023/08/10 00:22:58;;;;;;;5.77;5.27;;;;;;;14.96;85.32;98343.66;5049988;28;21073;-75
2023/08/10 00:25:26;;;;;;;6.03;5.50;;;;;;;14.98;85.50;98343.44;5049867;28;20496;-75
2023/08/10 00:27:55;;;;;;;5.97;5.47;;;;;;;14.96;85.39;98343.66;5049871;28;20511;-75
2023/08/10 00:30:22;;;;;;;6.47;5.87;;;;;;;14.92;85.64;98344.34;5049686;28;20439;-74
2023/08/10 00:32:49;;;;;;;6.23;5.73;;;;;;;14.85;85.73;98346.28;5049743;28;20859;-75
2023/08/10 00:35:16;;;;;;;5.20;4.70;;;;;;;14.70;86.35;98343.88;5049219;28;21010;-75
2023/08/10 00:37:43;;;;;;;5.70;5.10;;;;;;;14.82;86.21;98341.28;5049496;28;20495;-75
2023/08/10 00:40:12;;;;;;;5.87;5.40;;;;;;;14.66;86.63;98338.03;5049774;28;20558;-74
2023/08/10 00:42:40;;;;;;;6.43;5.93;;;;;;;14.71;86.77;98335.47;5049258;28;20446;-75
2023/08/10 00:45:09;;;;;;;6.70;6.20;;;;;;;14.74;86.44;98339.66;5048978;28;20466;-74
2023/08/10 00:47:36;;;;;;;7.07;6.57;;;;;;;14.75;86.73;98342.16;5049808;28;20562;-74
2023/08/10 00:50:03;;;;;;;5.47;5.07;;;;;;;14.69;86.73;98345.75;5049877;28;20509;-75
2023/08/10 00:52:31;;;;;;;6.80;6.30;;;;;;;14.67;86.84;98339.69;5049582;28;20441;-74
2023/08/10 00:54:57;;;;;;;6.00;5.57;;;;;;;14.64;87.24;98344.75;5049154;28;20833;-74
2023/08/10 00:57:24;;;;;;;6.47;6.07;;;;;;;14.59;87.00;98348.16;5049442;28;20558;-74
2023/08/10 00:59:53;;;;;;;5.70;5.30;;;;;;;14.52;87.49;98349.25;5049753;28;20494;-75
2023/08/10 01:02:19;;;;;;;5.97;5.47;;;;;;;14.50;87.87;98352.19;5049454;28;20976;-74
2023/08/10 01:04:46;;;;;;;7.60;6.90;;;;;;;14.47;87.54;98347.19;5049129;28;20977;-74
2023/08/10 01:07:20;;;;;;;6.73;6.30;;;;;;;14.45;87.56;98343.84;5049421;28;20988;-75
2023/08/10 01:09:50;;;;;;;5.73;5.27;;;;;;;14.23;88.16;98356.09;5049432;28;20534;-75
2023/08/10 01:12:22;;;;;;;5.70;5.30;;;;;;;14.24;88.39;98353.16;5049615;28;20529;-74
2023/08/10 01:14:55;;;;;;;5.50;5.03;;;;;;;14.08;88.36;98346.31;5049155;28;20453;-74
2023/08/10 01:17:27;;;;;;;4.87;4.47;;;;;;;14.13;88.22;98357.41;5049353;28;20503;-74
2023/08/10 01:19:55;;;;;;;4.60;4.30;;;;;;;14.02;88.31;98360.78;5049124;28;20550;-74
2023/08/10 01:22:26;;;;;;;5.20;4.80;;;;;;;14.03;87.80;98354.28;5049290;28;20476;-74
2023/08/10 01:25:00;;;;;;;5.43;5.03;;;;;;;14.05;87.48;98357.63;5049170;28;20470;-74
2023/08/10 01:27:28;;;;;;;5.17;4.60;;;;;;;14.05;87.36;98356.81;5051691;28;20552;-74
2023/08/10 01:29:55;;;;;;;5.03;4.63;;;;;;;14.08;87.07;98362.66;5053298;28;20502;-74
2023/08/10 01:32:22;;;;;;;4.80;4.40;;;;;;;14.06;86.70;98359.31;5052937;28;20440;-74
2023/08/10 01:34:50;;;;;;;5.60;5.20;;;;;;;14.05;86.75;98352.19;5052785;28;20439;-74
2023/08/10 01:37:17;;;;;;;6.17;5.70;;;;;;;13.90;87.22;98354.38;5053105;28;20473;-74
2023/08/10 01:39:44;;;;;;;5.03;4.70;;;;;;;13.82;87.18;98351.03;5053317;28;20571;-74
2023/08/10 01:42:12;;;;;;;5.50;5.00;;;;;;;13.83;87.30;98348.13;5052548;28;21032;-74
2023/08/10 01:44:39;;;;;;;5.30;4.80;;;;;;;13.76;87.19;98342.69;5052981;28;20445;-74
2023/08/10 01:47:10;;;;;;;5.03;4.60;;;;;;;13.86;86.75;98353.13;5052863;28;21007;-74
2023/08/10 01:49:38;;;;;;;5.60;5.20;;;;;;;13.83;86.83;98353.56;5052848;28;20442;-74
2023/08/10 01:52:08;;;;;;;5.27;4.77;;;;;;;13.73;86.90;98364.03;5053240;28;20511;-74
2023/08/10 01:54:36;;;;;;;4.70;4.40;;;;;;;13.67;87.42;98348.56;5052513;28;20850;-74
2023/08/10 01:57:03;;;;;;;5.23;4.83;;;;;;;13.68;87.40;98356.53;5052304;28;20878;-76
2023/08/10 01:59:31;;;;;;;6.00;5.43;;;;;;;13.76;86.74;98353.56;5052800;28;20494;-76
2023/08/10 02:01:57;;;;;;;5.90;5.50;;;;;;;13.65;87.23;98364.28;5052458;28;20938;-76
2023/08/10 02:04:24;;;;;;;6.20;5.80;;;;;;;13.58;87.38;98361.59;5052628;28;20491;-76
2023/08/10 02:06:51;;;;;;;6.20;5.77;;;;;;;13.47;87.82;98364.13;5052618;28;20533;-76
2023/08/10 02:09:18;;;;;;;6.70;6.20;;;;;;;13.47;88.28;98358.69;5052320;28;20558;-76
2023/08/10 02:11:45;;;;;;;5.77;5.37;;;;;;;13.49;88.09;98362.03;5052467;28;20546;-76
2023/08/10 02:14:11;;;;;;;6.00;5.60;;;;;;;13.41;88.34;98361.19;5052302;28;20466;-75
2023/08/10 02:16:39;;;;;;;6.87;6.37;;;;;;;13.43;88.43;98359.09;5052675;28;20533;-76
2023/08/10 02:19:06;;;;;;;6.00;5.50;;;;;;;13.41;88.56;98360.38;5052392;28;20912;-75
2023/08/10 02:21:33;;;;;;;5.78;5.28;;;;;;;13.42;88.38;98352.00;5052457;28;20463;-75
2023/08/10 02:24:00;;;;;;;7.67;6.63;;;;;;;13.41;88.52;98358.47;5052222;28;20234;-75
2023/08/10 02:26:27;;;;;;;5.70;5.30;;;;;;;13.40;88.83;98359.53;5052256;28;20527;-76
2023/08/10 02:28:53;;;;;;;7.33;6.80;;;;;;;13.40;88.92;98359.53;5051950;28;20541;-76
2023/08/10 02:31:21;;;;;;;8.50;7.70;;;;;;;13.29;89.17;98352.03;5052125;28;20548;-76
2023/08/10 02:33:49;;;;;;;6.87;6.37;;;;;;;13.23;89.85;98371.91;5051916;28;20546;-76
2023/08/10 02:36:16;;;;;;;6.33;5.93;;;;;;;13.38;89.34;98361.63;5052265;28;20462;-76
2023/08/10 02:38:43;;;;;;;7.73;6.97;;;;;;;13.48;88.98;98368.50;5050940;28;20583;-76
2023/08/10 02:41:10;;;;;;;7.97;7.37;;;;;;;13.36;89.32;98369.16;5051065;28;20447;-76
2023/08/10 02:43:37;;;;;;;8.73;7.93;;;;;;;13.28;90.13;98374.00;5051269;28;20817;-75
2023/08/10 02:46:04;;;;;;;8.17;7.47;;;;;;;13.31;89.95;98371.69;5052114;28;20481;-76
2023/08/10 02:48:31;;;;;;;8.20;7.60;;;;;;;13.37;89.70;98373.53;5051629;28;20542;-76
2023/08/10 02:50:59;;;;;;;7.30;6.80;;;;;;;13.28;89.96;98374.84;5051920;28;20494;-75
2023/08/10 02:53:25;;;;;;;7.57;6.97;;;;;;;13.39;89.93;98368.72;5051402;28;20844;-75
2023/08/10 02:55:52;;;;;;;9.07;8.37;;;;;;;13.30;89.61;98380.91;5051691;28;20480;-75
2023/08/10 02:58:21;;;;;;;8.40;7.60;;;;;;;13.26;90.21;98378.81;5051430;28;21021;-75
2023/08/10 03:00:48;;;;;;;9.80;9.10;;;;;;;13.19;90.59;98370.66;5051815;28;20895;-75
2023/08/10 03:03:15;;;;;;;10.13;9.27;;;;;;;13.19;91.02;98377.97;5051638;28;20448;-75
2023/08/10 03:05:42;;;;;;;8.80;8.07;;;;;;;13.02;91.31;98372.09;5051379;28;20447;-75
2023/08/10 03:08:10;;;;;;;8.30;7.50;;;;;;;13.09;91.88;98379.19;5051632;28;20467;-75
2023/08/10 03:10:37;;;;;;;8.03;7.40;;;;;;;13.18;91.74;98382.56;5051769;28;20563;-75
2023/08/10 03:13:04;;;;;;;8.60;7.90;;;;;;;13.14;92.11;98375.84;5050895;28;20533;-75
2023/08/10 03:15:31;;;;;;;9.23;8.43;;;;;;;13.16;92.29;98376.50;5051403;28;20516;-75
2023/08/10 03:17:58;;;;;;;8.23;7.63;;;;;;;13.21;91.64;98379.44;5051480;28;20766;-75
2023/08/10 03:20:25;;;;;;;7.17;6.67;;;;;;;13.04;92.11;98378.16;5051241;28;20233;-75
2023/08/10 03:22:52;;;;;;;7.67;7.17;;;;;;;13.12;91.67;98373.34;5050963;28;20444;-75
2023/08/10 03:25:20;;;;;;;8.20;7.50;;;;;;;13.03;91.77;98363.72;5050912;28;20471;-74
2023/08/10 03:27:47;;;;;;;7.97;7.37;;;;;;;12.95;91.68;98360.41;5051336;28;20465;-74
2023/08/10 03:30:14;;;;;;;8.05;7.45;;;;;;;12.94;91.81;98369.59;5051436;28;20459;-75
2023/08/10 03:32:41;;;;;;;7.80;7.20;;;;;;;12.95;91.27;98368.56;5051145;28;20203;-75
2023/08/10 03:35:09;;;;;;;6.93;6.43;;;;;;;12.76;91.38;98362.06;5050770;28;20487;-75
2023/08/10 03:37:36;;;;;;;8.73;7.90;;;;;;;12.75;91.11;98372.09;5050572;28;20539;-75
2023/08/10 03:40:03;;;;;;;7.40;6.90;;;;;;;12.68;90.94;98373.94;5050365;28;20569;-74
2023/08/10 03:42:31;;;;;;;8.00;7.20;;;;;;;12.69;91.53;98380.22;5051245;28;20211;-74
2023/08/10 03:44:58;;;;;;;7.40;6.80;;;;;;;12.60;91.45;98389.63;5050770;28;20440;-75
2023/08/10 03:47:25;;;;;;;6.95;6.45;;;;;;;12.61;91.86;98392.13;5050867;28;20838;-74
2023/08/10 03:49:51;;;;;;;7.90;7.27;;;;;;;12.55;92.16;98392.13;5049898;28;20215;-75
2023/08/10 03:52:18;;;;;;;6.70;6.20;;;;;;;12.49;92.88;98396.50;5050722;28;20851;-75
2023/08/10 03:54:45;;;;;;;7.28;6.78;;;;;;;12.57;92.68;98390.88;5050356;28;20531;-75
2023/08/10 03:57:12;;;;;;;7.95;7.35;;;;;;;12.67;92.33;98388.56;5050462;28;20275;-75
2023/08/10 03:59:40;;;;;;;7.67;7.07;;;;;;;12.63;92.45;98395.47;5050590;28;20286;-74
2023/08/10 04:02:08;;;;;;;7.55;6.95;;;;;;;12.69;92.53;98393.78;5050517;28;20939;-74
2023/08/10 04:04:35;;;;;;;9.40;8.67;;;;;;;12.67;92.73;98385.84;5050313;28;20201;-75
2023/08/10 04:07:01;;;;;;;8.50;7.80;;;;;;;12.77;92.60;98388.16;5050187;28;20552;-75
2023/08/10 04:09:29;;;;;;;7.30;6.80;;;;;;;12.76;92.56;98378.34;5050429;28;20451;-75
2023/08/10 04:11:55;;;;;;;9.80;8.87;;;;;;;12.74;92.11;98383.16;5050358;28;20454;-75
2023/08/10 04:14:22;;;;;;;9.30;8.60;;;;;;;12.78;92.06;98376.25;5049473;28;20457;-75
2023/08/10 04:16:51;;;;;;;8.53;7.83;;;;;;;12.78;92.04;98382.53;5050286;28;20823;-75
2023/08/10 04:19:17;;;;;;;8.82;8.15;;;;;;;12.69;92.15;98389.19;5050104;28;20537;-75
2023/08/10 04:21:45;;;;;;;8.25;7.65;;;;;;;12.74;91.69;98380.44;5049895;28;20200;-75
2023/08/10 04:24:12;;;;;;;8.32;7.72;;;;;;;12.72;91.56;98388.78;5049728;28;20209;-75
2023/08/10 04:26:39;;;;;;;7.70;7.20;;;;;;;12.66;92.20;98405.09;5050152;28;20238;-75
2023/08/10 04:29:06;;;;;;;8.90;8.20;;;;;;;12.57;92.05;98395.47;5050166;28;20236;-74
2023/08/10 04:31:33;;;;;;;8.65;8.05;;;;;;;12.51;92.18;98399.84;5050058;28;20212;-75
2023/08/10 04:34:01;;;;;;;10.10;9.40;;;;;;;12.51;92.54;98397.13;5049930;28;20216;-75
2023/08/10 04:36:28;;;;;;;10.30;9.40;;;;;;;12.56;92.19;98400.06;5049761;28;20455;-75
2023/08/10 04:38:55;;;;;;;9.32;8.63;;;;;;;12.48;92.11;98394.81;5050022;28;20240;-75
2023/08/10 04:41:23;;;;;;;8.65;7.85;;;;;;;12.44;92.43;98407.13;5050014;28;20228;-75
2023/08/10 04:43:49;;;;;;;8.27;7.57;;;;;;;12.54;92.12;98406.72;5049627;28;20213;-75
2023/08/10 04:46:16;;;;;;;10.43;9.63;;;;;;;12.47;92.21;98412.13;5049596;28;20267;-75
2023/08/10 04:48:43;;;;;;;9.45;8.63;;;;;;;12.38;92.52;98403.34;5048844;28;20692;-75
2023/08/10 04:51:11;;;;;;;9.32;8.65;;;;;;;12.53;91.72;98410.50;5049732;28;20621;-75
2023/08/10 04:53:38;;;;;;;10.25;9.35;;;;;;;12.45;92.16;98409.63;5049278;28;20295;-75
2023/08/10 04:56:05;;;;;;;7.93;7.13;;;;;;;12.41;92.26;98407.53;5049796;28;20209;-75
2023/08/10 04:58:31;;;;;;;9.30;8.60;;;;;;;12.51;92.14;98410.69;5049182;28;20764;-75
2023/08/10 05:00:59;;;;;;;8.20;7.60;;;;;;;12.58;91.71;98411.56;5048981;28;20600;-75
2023/08/10 05:03:26;;;;;;;9.93;9.13;;;;;;;12.51;92.01;98423.44;5049045;28;20712;-75
2023/08/10 05:05:52;;;;;;;9.27;8.50;;;;;;;12.42;92.11;98417.34;5049488;28;20215;-75
2023/08/10 05:08:22;;;;;;;7.95;7.35;;;;;;;12.63;91.53;98419.09;5049514;28;20197;-76
2023/08/10 05:10:49;;;;;;;8.90;8.20;;;;;;;12.60;91.48;98414.91;5049331;28;20208;-75
2023/08/10 05:13:16;;;;;;;9.85;9.02;;;;;;;12.52;91.80;98415.09;5049226;28;20242;-75
2023/08/10 05:15:43;;;;;;;9.32;8.55;;;;;;;12.58;92.19;98422.41;5049049;28;20554;-75
2023/08/10 05:18:10;;;;;;;9.70;9.00;;;;;;;12.57;92.50;98420.75;5048931;28;20756;-75
2023/08/10 05:20:38;;;;;;;9.57;8.77;;;;;;;12.71;92.14;98414.28;5049357;28;20568;-76
2023/08/10 05:23:04;;;;;;;9.40;8.70;;;;;;;12.65;92.24;98420.56;5049428;28;20236;-75
2023/08/10 05:25:32;;;;;;;11.43;10.43;;;;;;;12.67;92.64;98421.16;5048834;28;20201;-75
2023/08/10 05:27:59;;;;;;;10.43;9.63;;;;;;;12.80;92.60;98428.50;5049537;28;20459;-76
2023/08/10 05:30:26;;;;;;;10.17;9.37;;;;;;;12.89;92.41;98431.88;5049157;28;20476;-75
2023/08/10 05:32:53;;;;;;;10.37;9.47;;;;;;;12.93;92.40;98428.53;5049064;28;20977;-75
2023/08/10 05:35:21;;;;;;;9.10;8.37;;;;;;;13.00;92.56;98429.34;5048940;28;20461;-75
2023/08/10 05:37:47;;;;;;;9.85;9.05;;;;;;;13.02;92.23;98423.69;5049081;28;20990;-75
2023/08/10 05:40:14;;;;;;;10.50;9.80;;;;;;;13.05;92.57;98426.00;5049091;28;20240;-76
2023/08/10 05:42:43;;;;;;;9.47;8.77;;;;;;;13.16;92.09;98425.44;5049057;28;20449;-76
2023/08/10 05:45:14;;;;;;;8.90;8.30;;;;;;;13.06;92.62;98438.56;5048900;28;20463;-75
2023/08/10 05:47:41;;;;;;;9.77;9.07;;;;;;;13.24;92.38;98440.69;5049109;28;20463;-76
2023/08/10 05:50:09;;;;;;;8.07;7.47;;;;;;;13.49;91.87;98438.16;5049159;28;20478;-76
2023/08/10 05:52:36;;;;;;;8.30;7.70;;;;;;;13.75;90.90;98443.56;5048916;28;20461;-75
2023/08/10 05:55:05;;;;;;;8.47;7.87;;;;;;;13.78;90.97;98448.56;5048867;28;20456;-76
2023/08/10 05:57:32;;;;;;;8.23;7.53;;;;;;;13.82;90.40;98452.53;5048870;28;20468;-76
2023/08/10 06:00:00;;;;;;;9.37;8.47;;;;;;;13.95;89.88;98448.97;5049216;28;20622;-76
2023/08/10 06:02:27;;;;;;;7.23;6.73;;;;;;;14.11;89.77;98449.31;5049281;28;20461;-75
2023/08/10 06:04:54;;;;;;;7.03;6.53;;;;;;;14.47;88.55;98442.50;5048576;28;20858;-75
2023/08/10 06:07:21;;;;;;;7.13;6.43;;;;;;;14.53;88.10;98446.25;5048745;28;20473;-76
2023/08/10 06:09:48;;;;;;;7.23;6.63;;;;;;;14.49;87.91;98454.03;5048579;28;20492;-76
2023/08/10 06:12:16;;;;;;;7.27;6.70;;;;;;;14.81;87.20;98454.06;5049376;28;20450;-75
2023/08/10 06:14:43;;;;;;;6.70;6.20;;;;;;;14.86;86.85;98451.50;5052183;28;20529;-75
2023/08/10 06:17:11;;;;;;;6.97;6.40;;;;;;;14.86;86.53;98446.91;5052305;28;20997;-76
2023/08/10 06:19:38;;;;;;;6.50;6.00;;;;;;;14.82;86.07;98455.72;5052142;28;20459;-76
2023/08/10 06:22:05;;;;;;;6.73;6.23;;;;;;;14.93;85.95;98457.75;5052793;28;20518;-75
2023/08/10 06:24:32;;;;;;;6.30;5.90;;;;;;;14.96;85.99;98447.22;5052252;28;20512;-75
2023/08/10 06:26:59;;;;;;;6.50;6.00;;;;;;;15.22;85.37;98456.28;5052438;28;20459;-75
2023/08/10 06:29:26;;;;;;;6.50;6.00;;;;;;;15.16;85.37;98458.00;5052631;28;20526;-75
2023/08/10 06:31:53;;;;;;;7.70;7.10;;;;;;;14.87;85.71;98458.63;5052648;28;20445;-76
2023/08/10 06:34:22;;;;;;;7.53;7.03;;;;;;;14.73;86.91;98458.69;5052113;28;20443;-75
2023/08/10 06:36:49;;;;;;;8.20;7.40;;;;;;;14.67;87.16;98459.56;5052377;28;20454;-76
2023/08/10 06:39:16;;;;;;;7.93;7.33;;;;;;;14.71;87.45;98455.34;5051911;28;20538;-75
2023/08/10 06:41:42;;;;;;;8.83;7.97;;;;;;;14.77;87.53;98465.38;5051917;28;20489;-75
2023/08/10 06:44:09;;;;;;;9.13;8.43;;;;;;;14.73;87.66;98457.88;5051887;28;20526;-75
2023/08/10 06:46:36;;;;;;;9.47;8.77;;;;;;;14.76;87.59;98466.44;5052108;28;20514;-75
2023/08/10 06:49:03;;;;;;;8.50;7.90;;;;;;;14.78;87.52;98467.06;5051952;28;21438;-75
2023/08/10 06:51:32;;;;;;;8.33;7.73;;;;;;;14.87;86.94;98470.38;5051855;28;20535;-75
2023/08/10 06:53:59;;;;;;;8.30;7.70;;;;;;;15.03;86.10;98479.91;5051800;28;20431;-75
2023/08/10 06:56:26;;;;;;;8.23;7.73;;;;;;;15.16;86.08;98479.81;5051962;28;20502;-76
2023/08/10 06:58:52;;;;;;;8.00;7.40;;;;;;;15.41;85.58;98486.13;5051881;28;20446;-76
2023/08/10 07:01:19;;;;;;;7.27;6.77;;;;;;;15.52;85.13;98489.19;5051113;28;20494;-76
2023/08/10 07:03:46;;;;;;;7.70;7.20;;;;;;;15.60;84.13;98494.38;5051530;28;20566;-76
2023/08/10 07:06:13;;;;;;;8.30;7.60;;;;;;;15.65;83.99;98486.38;5051142;28;21057;-76
2023/08/10 07:08:41;;;;;;;7.83;7.13;;;;;;;15.83;83.50;98485.59;5051795;28;20443;-76
2023/08/10 07:11:08;;;;;;;8.70;8.10;;;;;;;15.80;83.80;98475.94;5051478;28;20475;-75
2023/08/10 07:13:35;;;;;;;8.63;7.93;;;;;;;15.72;83.88;98479.81;5051400;28;20541;-75
2023/08/10 07:16:02;;;;;;;7.73;7.23;;;;;;;15.72;83.39;98473.50;5051343;28;20893;-75
2023/08/10 07:18:28;;;;;;;7.07;6.53;;;;;;;15.93;82.77;98470.34;5051220;28;20443;-75
2023/08/10 07:20:56;;;;;;;7.87;7.37;;;;;;;15.79;83.33;98475.13;5051140;28;20509;-75
2023/08/10 07:23:22;;;;;;;7.30;6.80;;;;;;;15.94;82.45;98480.19;5050943;28;20449;-75
2023/08/10 07:25:54;;;;;;;7.10;6.50;;;;;;;15.97;82.24;98476.19;5051227;28;20444;-75
2023/08/10 07:28:23;;;;;;;6.77;6.33;;;;;;;16.23;81.65;98486.00;5051120;28;20530;-75
2023/08/10 07:30:50;;;;;;;6.83;6.33;;;;;;;16.33;81.27;98489.03;5051424;28;20447;-75
2023/08/10 07:33:17;;;;;;;6.40;5.90;;;;;;;16.62;80.90;98490.16;5050739;28;20509;-75
2023/08/10 07:35:44;;;;;;;6.43;6.03;;;;;;;16.73;80.09;98489.41;5050279;28;20487;-75
2023/08/10 07:38:11;;;;;;;5.87;5.47;;;;;;;16.58;79.57;98487.03;5051073;28;20749;-75
2023/08/10 07:40:38;;;;;;;5.87;5.37;;;;;;;16.76;79.32;98480.75;5050814;28;20582;-75
2023/08/10 07:43:07;;;;;;;5.93;5.43;;;;;;;16.74;78.81;98474.69;5050663;28;20960;-75
2023/08/10 07:45:34;;;;;;;6.07;5.57;;;;;;;17.05;77.91;98485.38;5050369;28;20815;-75
2023/08/10 07:48:01;;;;;;;5.33;4.90;;;;;;;17.10;77.72;98492.88;5051068;28;20508;-75
2023/08/10 07:50:28;;;;;;;5.60;5.10;;;;;;;17.10;77.45;98482.78;5050504;28;20887;-75
2023/08/10 07:52:55;;;;;;;5.80;5.30;;;;;;;17.00;77.50;98498.06;5050651;28;20451;-75
2023/08/10 07:55:21;;;;;;;6.50;5.90;;;;;;;17.35;77.04;98496.28;5050369;28;20917;-75
2023/08/10 07:57:49;;;;;;;6.50;5.90;;;;;;;17.39;77.26;98493.91;5050355;28;21008;-75
2023/08/10 08:00:18;;;;;;;5.73;5.33;;;;;;;17.70;75.58;98503.75;5050377;28;20969;-75
2023/08/10 08:02:45;;;;;;;5.90;5.43;;;;;;;17.78;75.78;98496.03;5050499;28;20474;-75
2023/08/10 08:05:12;;;;;;;5.60;5.20;;;;;;;18.12;74.95;98494.38;5050338;28;20474;-75
2023/08/10 08:07:38;;;;;;;4.93;4.53;;;;;;;18.41;73.00;98491.69;5050725;28;20494;-75
2023/08/10 08:10:06;;;;;;;5.13;4.73;;;;;;;18.76;72.27;98487.00;5049834;28;20549;-75
2023/08/10 08:12:33;;;;;;;4.80;4.40;;;;;;;18.83;70.93;98503.31;5050254;28;20459;-75
2023/08/10 08:14:59;;;;;;;5.97;4.87;;;;;;;19.19;70.02;98503.97;5049641;28;20455;-75
2023/08/10 08:17:27;;;;;;;5.30;4.90;;;;;;;19.34;68.65;98496.03;5049750;28;21015;-75
2023/08/10 08:19:57;;;;;;;4.93;4.33;;;;;;;19.28;68.71;98500.59;5050040;28;20437;-75
2023/08/10 08:22:24;;;;;;;4.60;4.20;;;;;;;19.37;68.04;98492.78;5049968;28;20488;-74
2023/08/10 08:24:52;;;;;;;4.93;4.47;;;;;;;19.71;67.70;98488.19;5049808;28;20435;-75
2023/08/10 08:27:19;;;;;;;4.70;4.20;;;;;;;20.14;66.26;98482.78;5049728;28;20975;-75
2023/08/10 08:29:45;;;;;;;4.93;4.60;;;;;;;20.48;66.09;98492.91;5049463;28;20511;-75
2023/08/10 08:32:12;;;;;;;4.40;4.10;;;;;;;20.94;62.87;98488.81;5049639;28;20871;-75
2023/08/10 08:34:40;;;;;;;4.20;3.80;;;;;;;20.82;63.81;98486.19;5049163;28;20451;-75
2023/08/10 08:37:07;;;;;;;4.27;3.97;;;;;;;20.99;62.60;98484.19;5049620;28;20519;-75
2023/08/10 08:39:34;;;;;;;4.20;3.80;;;;;;;21.13;63.31;98484.59;5049726;28;20549;-75
2023/08/10 08:42:02;;;;;;;3.60;3.40;;;;;;;21.71;61.70;98489.31;5049644;28;20843;-76
2023/08/10 08:44:29;;;;;;;3.67;3.37;;;;;;;21.95;59.90;98487.03;5049210;28;20509;-75
2023/08/10 08:46:56;;;;;;;3.40;3.10;;;;;;;22.19;58.05;98486.66;5049721;28;20473;-75
2023/08/10 08:49:23;;;;;;;3.90;3.70;;;;;;;22.60;57.18;98487.72;5049787;28;20550;-75
2023/08/10 08:51:51;;;;;;;3.43;3.13;;;;;;;23.30;55.86;98484.38;5049843;28;20537;-75
2023/08/10 08:54:18;;;;;;;4.23;3.83;;;;;;;22.72;54.76;98486.41;5049057;28;20467;-75
2023/08/10 08:56:45;;;;;;;4.30;4.00;;;;;;;22.61;55.58;98484.69;5049242;28;21003;-75
2023/08/10 08:59:12;;;;;;;4.33;4.03;;;;;;;22.77;56.04;98483.63;5049592;28;20513;-76
2023/08/10 09:01:40;;;;;;;4.40;4.10;;;;;;;23.32;54.55;98473.88;5049241;28;20491;-76
2023/08/10 09:04:07;;;;;;;3.80;3.50;;;;;;;23.93;53.52;98471.16;5049206;28;20474;-76
2023/08/10 09:06:33;;;;;;;3.93;3.60;;;;;;;23.94;51.72;98472.00;5049244;28;20482;-76
2023/08/10 09:09:02;;;;;;;3.70;3.40;;;;;;;23.94;51.78;98474.75;5049412;28;20446;-75
2023/08/10 09:11:29;;;;;;;4.03;3.73;;;;;;;24.22;50.84;98465.03;5049281;28;20969;-76
2023/08/10 09:14:06;;;;;;;4.43;3.53;;;;;;;24.23;50.58;98464.75;5048933;28;20516;-76
2023/08/10 09:16:34;;;;;;;4.23;3.87;;;;;;;23.69;51.70;98465.38;5049016;28;20487;-76
2023/08/10 09:19:02;;;;;;;3.00;2.80;;;;;;;23.93;50.32;98465.63;5049601;28;20462;-76
2023/08/10 09:21:31;;;;;;;3.70;3.40;;;;;;;24.36;49.25;98457.84;5048980;28;20982;-76
2023/08/10 09:23:58;;;;;;;3.83;3.53;;;;;;;25.36;47.50;98455.69;5049315;28;20443;-76
2023/08/10 09:26:26;;;;;;;2.80;2.60;;;;;;;25.53;47.01;98446.16;5049325;28;20497;-76
2023/08/10 09:28:55;;;;;;;2.80;2.60;;;;;;;25.92;46.05;98444.16;5049181;28;20971;-75
2023/08/10 09:31:24;;;;;;;3.50;3.20;;;;;;;26.54;44.71;98450.75;5049187;28;20447;-76
2023/08/10 09:33:54;;;;;;;3.90;3.50;;;;;;;26.33;44.20;98444.59;5048951;28;20451;-75
2023/08/10 09:36:23;;;;;;;3.70;3.43;;;;;;;25.95;46.62;98446.38;5049067;28;20446;-76
2023/08/10 09:38:51;;;;;;;3.87;3.50;;;;;;;26.02;45.40;98448.78;5049352;28;20439;-76
2023/08/10 09:41:19;;;;;;;3.23;3.03;;;;;;;26.03;45.19;98440.16;5049023;28;20954;-76
2023/08/10 09:43:47;;;;;;;4.17;3.87;;;;;;;25.96;45.77;98439.69;5048858;28;20474;-76
2023/08/10 09:46:15;;;;;;;4.00;3.70;;;;;;;25.55;46.38;98438.38;5049060;28;20467;-75
2023/08/10 09:48:44;;;;;;;3.53;3.23;;;;;;;25.86;45.54;98437.00;5052070;28;20485;-76
2023/08/10 09:51:12;;;;;;;3.63;3.30;;;;;;;26.27;45.61;98439.38;5052536;28;20864;-76
2023/08/10 09:53:39;;;;;;;3.80;3.60;;;;;;;26.99;44.46;98440.19;5052839;28;20478;-75
2023/08/10 09:56:07;;;;;;;3.50;3.20;;;;;;;27.20;44.08;98435.19;5053164;28;20516;-75
2023/08/10 09:58:35;;;;;;;3.10;2.90;;;;;;;27.17;43.21;98431.03;5052812;28;20804;-75
2023/08/10 10:01:04;;;;;;;2.93;2.73;;;;;;;27.08;42.76;98428.09;5052269;28;20471;-76
2023/08/10 10:03:31;;;;;;;2.90;2.70;;;;;;;27.13;43.54;98431.94;5052980;28;20882;-76
2023/08/10 10:05:59;;;;;;;2.60;2.40;;;;;;;28.01;41.62;98429.09;5052693;28;20489;-76
2023/08/10 10:08:27;;;;;;;3.03;2.83;;;;;;;28.33;40.80;98421.84;5052671;28;20463;-76
2023/08/10 10:10:57;;;;;;;2.90;2.70;;;;;;;28.58;40.58;98421.34;5052356;28;20462;-76
2023/08/10 10:13:25;;;;;;;2.60;2.50;;;;;;;28.93;38.36;98427.31;5052445;28;20465;-76
2023/08/10 10:15:53;;;;;;;5.40;3.00;;;;;;;28.94;37.97;98424.22;5052435;28;20530;-76
2023/08/10 10:18:21;;;;;;;3.40;3.20;;;;;;;28.16;40.38;98427.19;5052505;28;20546;-76
2023/08/10 10:20:49;;;;;;;3.10;2.90;;;;;;;28.34;39.61;98423.50;5052726;28;20550;-76
2023/08/10 10:23:18;;;;;;;2.50;2.30;;;;;;;27.87;40.61;98419.91;5052351;28;20889;-76
2023/08/10 10:25:56;;;;;;;3.70;3.50;;;;;;;27.87;39.51;98411.56;5052142;28;20524;-77
2023/08/10 10:28:23;;;;;;;3.57;3.27;;;;;;;28.25;38.84;98411.44;5052043;28;20553;-77
2023/08/10 10:30:55;;;;;;;2.67;2.47;;;;;;;28.23;38.80;98402.56;5052363;28;20443;-76
2023/08/10 10:33:24;;;;;;;2.30;2.10;;;;;;;28.59;37.80;98400.69;5051910;28;20481;-76
2023/08/10 10:36:12;;;;;;;2.40;2.13;;;;;;;29.35;36.60;98400.97;5052352;28;20474;-76
2023/08/10 10:38:40;;;;;;;2.90;2.70;;;;;;;28.94;36.66;98401.91;5051686;28;20518;-76
2023/08/10 10:41:18;;;;;;;3.03;2.50;;;;;;;29.19;36.78;98397.72;5052160;28;20442;-76
2023/08/10 10:43:45;;;;;;;3.20;3.00;;;;;;;29.24;35.67;98400.38;5052012;28;20455;-76
2023/08/10 10:46:36;;;;;;;3.50;3.20;;;;;;;30.22;33.75;98394.00;5052118;28;20493;-76
2023/08/10 10:49:09;;;;;;;3.63;3.37;;;;;;;30.42;33.50;98385.06;5051902;28;20486;-76
2023/08/10 10:51:57;;;;;;;4.87;4.50;;;;;;;30.04;33.02;98387.53;5052182;28;20526;-76
2023/08/10 10:54:24;;;;;;;3.30;3.10;;;;;;;29.15;34.76;98385.56;5051846;28;20520;-76
2023/08/10 10:56:51;;;;;;;3.17;2.97;;;;;;;29.58;34.56;98376.69;5052187;28;20550;-77
2023/08/10 10:59:19;;;;;;;3.73;3.47;;;;;;;29.56;34.77;98381.81;5050906;28;20933;-76
2023/08/10 11:01:47;;;;;;;3.20;3.00;;;;;;;29.63;33.06;98379.38;5051584;28;20482;-76
2023/08/10 11:04:16;;;;;;;2.60;2.40;;;;;;;28.96;30.98;98370.94;5051611;28;20443;-77
2023/08/10 11:06:42;;;;;;;2.63;2.43;;;;;;;28.89;31.06;98370.56;5051377;28;20959;-76
2023/08/10 11:09:09;;;;;;;2.60;2.40;;;;;;;27.44;32.18;98374.72;5051697;28;20503;-77
2023/08/10 11:11:37;;;;;;;2.97;2.77;;;;;;;27.68;31.67;98369.03;5051866;28;20589;-77
2023/08/10 11:14:03;;;;;;;2.47;2.27;;;;;;;27.91;31.60;98362.53;5050831;28;20455;-75
2023/08/10 11:16:42;;;;;;;2.50;2.30;;;;;;;28.46;30.32;98365.34;5051667;28;20457;-75
2023/08/10 11:19:11;;;;;;;2.50;2.30;;;;;;;28.46;29.81;98356.97;5051458;28;20593;-75
2023/08/10 11:21:42;;;;;;;2.70;2.50;;;;;;;28.56;30.51;98365.13;5051157;28;20482;-75
2023/08/10 11:24:09;;;;;;;2.73;2.40;;;;;;;28.21;27.04;98355.56;5051354;28;20445;-75
2023/08/10 11:26:36;;;;;;;2.13;2.03;;;;;;;28.30;28.45;98361.19;5051521;28;20447;-76
2023/08/10 11:29:02;;;;;;;2.33;2.13;;;;;;;29.10;28.81;98355.00;5051479;28;20471;-76
2023/08/10 11:31:30;;;;;;;2.07;1.97;;;;;;;29.48;28.23;98349.09;5050674;28;20533;-76
2023/08/10 11:33:56;;;;;;;2.63;2.43;;;;;;;28.82;28.80;98345.09;5050460;28;20967;-76
2023/08/10 11:36:24;;;;;;;3.20;3.00;;;;;;;28.16;29.83;98340.88;5051038;28;20451;-76